Santiago del Estero, Argentina
Current Conditions -  °F | °C
As of 5:00 AM on Monday 22 Dec 2014 (Local Time) from SANT Reporting Station
Drizzle Drizzle  
Wind Chill: 59°   Ceiling: 800
Heat Index: 59°   Visibility: 3mi
Dew Point: 59°   Wind: 6mph
Humidity: 100%   Direction: 180°S
Pressure: 30.12"   Gusts: NA
Location:  27.8°S, 64.28°W
Report Text: SANT 220800Z 18005KT 5000 -DZ BR SCT004BKN008 OVC040 15/15 Q1020
Loading
Personal Weather Stations






























Interactive Weather Map New forecast layout! Learn more

10-Day Weather Forecast

Advertisements
Track Severe Weather on mobile